createdAt,value
2018-02-06T00:01:32.172Z,31.30
2018-02-06T00:04:00.530Z,33.50
2018-02-06T00:06:28.872Z,37.30
2018-02-06T00:08:57.167Z,36.03
2018-02-06T00:11:25.550Z,35.40
2018-02-06T00:13:53.908Z,32.83
2018-02-06T00:16:22.266Z,35.20
2018-02-06T00:18:50.553Z,35.30
2018-02-06T00:21:18.877Z,34.80
2018-02-06T00:23:47.211Z,35.60
2018-02-06T00:26:15.561Z,34.33
2018-02-06T00:28:43.901Z,39.50
2018-02-06T00:31:19.309Z,29.63
2018-02-06T00:33:47.855Z,32.50
2018-02-06T00:36:16.190Z,33.20
2018-02-06T00:38:44.745Z,34.20
2018-02-06T00:41:13.072Z,34.87
2018-02-06T00:43:41.400Z,35.47
2018-02-06T00:46:09.752Z,31.97
2018-02-06T00:48:38.087Z,35.20
2018-02-06T00:51:06.394Z,28.10
2018-02-06T00:53:34.698Z,32.30
2018-02-06T00:56:03.299Z,37.43
2018-02-06T00:58:32.099Z,32.70
2018-02-06T01:01:01.007Z,32.73
2018-02-06T01:03:30.439Z,35.93
2018-02-06T01:05:59.031Z,31.47
2018-02-06T01:08:29.249Z,29.70
2018-02-06T01:10:58.091Z,30.10
2018-02-06T01:13:26.426Z,34.77
2018-02-06T01:15:54.813Z,36.67
2018-02-06T01:18:23.206Z,32.67
2018-02-06T01:20:51.546Z,25.73
2018-02-06T01:23:19.989Z,27.03
2018-02-06T01:25:48.354Z,28.13
2018-02-06T01:28:16.668Z,28.67
2018-02-06T01:30:45.578Z,29.83
2018-02-06T01:33:13.932Z,29.60
2018-02-06T01:35:42.527Z,29.43
2018-02-06T01:38:10.855Z,29.03
2018-02-06T01:40:39.230Z,28.67
2018-02-06T01:43:08.070Z,31.70
2018-02-06T01:45:36.435Z,36.03
2018-02-06T01:48:04.744Z,33.50
2018-02-06T01:50:33.075Z,30.53
2018-02-06T01:53:05.623Z,29.97
2018-02-06T01:55:35.271Z,30.87
2018-02-06T01:58:04.231Z,30.70
2018-02-06T02:00:32.635Z,28.50
2018-02-06T02:03:00.936Z,30.73
2018-02-06T02:05:29.526Z,32.40
2018-02-06T02:07:57.851Z,31.00
2018-02-06T02:10:26.288Z,30.73
2018-02-06T02:12:56.177Z,32.90
2018-02-06T02:15:24.503Z,30.63
2018-02-06T02:17:53.045Z,34.63
2018-02-06T02:20:21.677Z,28.60
2018-02-06T02:22:50.095Z,30.40
2018-02-06T02:25:18.431Z,29.87
2018-02-06T02:27:46.839Z,34.67
2018-02-06T02:30:15.164Z,35.43
2018-02-06T02:32:43.467Z,31.93
2018-02-06T02:35:11.873Z,40.13
2018-02-06T02:37:40.172Z,29.70
2018-02-06T02:40:08.944Z,28.33
2018-02-06T04:38:39.611Z,20.10
2018-02-06T04:41:08.229Z,20.63
2018-02-06T04:43:36.561Z,19.83
2018-02-06T04:46:04.944Z,18.57
2018-02-06T04:48:33.214Z,17.00
2018-02-06T04:51:01.542Z,20.10
2018-02-06T04:53:30.054Z,18.87
2018-02-06T04:55:58.592Z,20.03
2018-02-06T04:58:26.992Z,23.10
2018-02-06T05:03:50.885Z,19.10
2018-02-06T05:06:19.250Z,16.60
2018-02-06T05:08:47.563Z,24.70
2018-02-06T05:11:16.001Z,25.73
2018-02-06T05:13:44.347Z,19.00
2018-02-06T05:16:12.870Z,26.63
2018-02-06T05:18:41.252Z,21.20
2018-02-06T05:21:09.582Z,21.10
2018-02-06T05:23:37.938Z,17.93
2018-02-06T05:26:06.414Z,20.53
2018-02-06T05:28:34.733Z,22.30
2018-02-06T05:31:03.055Z,16.90
2018-02-06T05:33:31.459Z,20.60
2018-02-06T05:35:59.779Z,22.93
2018-02-06T05:38:28.075Z,21.10
2018-02-06T05:40:56.430Z,21.60
2018-02-06T05:43:24.891Z,22.63
2018-02-06T05:45:53.278Z,18.80
2018-02-06T05:48:21.610Z,26.33
2018-02-06T05:50:49.951Z,21.93
2018-02-06T05:53:18.260Z,22.53
2018-02-06T05:55:46.562Z,20.63
2018-02-06T05:58:14.904Z,20.50
2018-02-06T06:00:43.646Z,24.47
2018-02-06T06:03:11.939Z,25.97
2018-02-06T06:05:40.795Z,25.30
2018-02-06T06:08:09.298Z,19.33
2018-02-06T06:10:42.163Z,24.40
2018-02-06T06:13:11.723Z,20.70
2018-02-06T06:15:40.401Z,24.43
2018-02-06T06:18:11.816Z,33.00
2018-02-06T06:20:41.070Z,24.07
2018-02-06T06:23:10.863Z,25.47
2018-02-06T06:25:39.467Z,21.00
2018-02-06T06:28:07.779Z,19.90
2018-02-06T06:30:36.160Z,27.83
2018-02-06T06:33:04.443Z,26.83
2018-02-06T06:35:33.125Z,23.80
2018-02-06T06:38:03.328Z,25.00
2018-02-06T06:40:32.301Z,28.97
2018-02-06T06:43:01.550Z,21.77
2018-02-06T06:45:30.599Z,22.27
2018-02-06T06:47:58.976Z,35.10
2018-02-06T06:50:27.310Z,24.13
2018-02-06T06:52:55.606Z,23.03
2018-02-06T06:55:23.924Z,25.27
2018-02-06T06:57:52.364Z,27.80
2018-02-06T07:00:20.953Z,27.17
2018-02-06T07:02:49.398Z,23.30
2018-02-06T07:05:17.738Z,21.53
2018-02-06T07:07:46.092Z,29.23
2018-02-06T07:10:14.563Z,28.90
2018-02-06T07:12:42.850Z,29.00
2018-02-06T07:15:11.175Z,27.80
2018-02-06T07:17:39.494Z,31.47
2018-02-06T07:20:08.031Z,25.43
2018-02-06T07:22:36.471Z,33.10
2018-02-06T07:25:04.942Z,25.57
2018-02-06T07:27:33.222Z,25.20
2018-02-06T07:30:01.708Z,33.57
2018-02-06T07:32:30.215Z,32.30
2018-02-06T07:34:58.540Z,28.87
2018-02-06T07:37:26.940Z,25.97
2018-02-06T07:39:55.281Z,27.97
2018-02-06T07:42:23.624Z,30.73
2018-02-06T07:44:52.131Z,25.80
2018-02-06T07:47:20.472Z,27.43
2018-02-06T07:49:48.823Z,28.30
2018-02-06T07:52:17.177Z,23.93
2018-02-06T07:54:45.559Z,22.80
2018-02-06T07:57:13.969Z,24.03
2018-02-06T07:59:42.287Z,27.17
2018-02-06T08:02:10.636Z,18.90
2018-02-06T08:04:39.083Z,16.93
2018-02-06T08:07:07.428Z,13.57
2018-02-06T08:09:35.910Z,19.47
2018-02-06T08:12:04.238Z,18.10
2018-02-06T08:14:32.627Z,17.50
2018-02-06T08:17:00.977Z,18.50
2018-02-06T08:19:29.315Z,16.53
2018-02-06T08:22:04.458Z,17.20
2018-02-06T08:24:32.754Z,21.80
2018-02-06T08:27:01.272Z,22.43
2018-02-06T08:29:29.629Z,15.77
2018-02-06T08:31:58.053Z,18.30
2018-02-06T08:34:27.864Z,18.00
2018-02-06T08:36:59.083Z,18.37
2018-02-06T08:39:27.734Z,16.03
2018-02-06T08:41:56.055Z,24.10
2018-02-06T08:44:24.436Z,14.27
2018-02-06T08:46:52.779Z,16.60
2018-02-06T08:49:21.106Z,15.20
2018-02-06T08:51:49.404Z,17.90
2018-02-06T08:54:17.815Z,14.80
2018-02-06T08:56:46.169Z,14.33
2018-02-06T08:59:14.551Z,17.23
2018-02-06T09:01:42.911Z,14.60
2018-02-06T09:04:11.316Z,16.50
2018-02-06T09:06:39.650Z,14.37
2018-02-06T09:09:07.947Z,14.20
2018-02-06T09:11:36.298Z,23.93
2018-02-06T09:14:04.887Z,12.93
2018-02-06T09:16:33.270Z,14.73
2018-02-06T09:19:01.732Z,14.60
2018-02-06T09:21:30.210Z,15.50
2018-02-06T09:23:58.690Z,12.20
2018-02-06T09:26:27.060Z,12.90
2018-02-06T09:28:55.684Z,13.00
2018-02-06T09:31:24.001Z,10.40
2018-02-06T09:33:52.358Z,15.37
2018-02-06T09:36:20.683Z,9.80
2018-02-06T09:38:49.044Z,13.13
2018-02-06T09:41:17.497Z,12.50
2018-02-06T09:43:45.825Z,11.23
2018-02-06T09:46:14.194Z,14.43
2018-02-06T09:48:42.518Z,13.23
2018-02-06T09:51:10.876Z,11.50
2018-02-06T09:53:39.160Z,16.60
2018-02-06T09:56:10.775Z,13.90
2018-02-06T09:58:39.068Z,11.90
2018-02-06T10:01:07.562Z,13.43
2018-02-06T10:03:35.975Z,10.07
2018-02-06T10:06:04.453Z,13.60
2018-02-06T10:08:33.627Z,13.20
2018-02-06T10:11:02.064Z,14.63
2018-02-06T10:13:30.380Z,7.63
2018-02-06T10:15:58.681Z,8.50
2018-02-06T10:18:27.070Z,10.13
2018-02-06T10:20:55.390Z,8.00
2018-02-06T10:23:23.681Z,10.20
2018-02-06T10:25:51.966Z,9.13
2018-02-06T10:28:20.256Z,9.83
2018-02-06T10:30:48.558Z,9.27
2018-02-06T10:33:17.203Z,11.67
2018-02-06T10:35:45.551Z,13.33
2018-02-06T10:38:14.367Z,11.00
2018-02-06T10:40:42.915Z,28.87
2018-02-06T10:43:11.282Z,12.83
2018-02-06T10:45:39.686Z,11.70
2018-02-06T10:48:09.849Z,14.10
2018-02-06T10:50:38.258Z,15.93
2018-02-06T10:53:06.719Z,14.57
2018-02-06T10:55:35.222Z,15.83
2018-02-06T10:58:03.565Z,11.20
2018-02-06T11:00:31.947Z,10.73
2018-02-06T11:03:00.298Z,13.80
2018-02-06T11:05:28.750Z,10.70
2018-02-06T11:07:57.078Z,11.57
2018-02-06T11:10:25.402Z,13.43
2018-02-06T11:12:53.987Z,12.03
2018-02-06T11:15:22.759Z,12.67
2018-02-06T11:17:51.048Z,10.23
2018-02-06T11:20:19.366Z,15.67
2018-02-06T11:22:47.717Z,14.57
2018-02-06T11:25:16.055Z,8.80
2018-02-06T11:27:44.575Z,9.90
2018-02-06T11:30:12.919Z,13.70
2018-02-06T11:32:41.223Z,10.50
2018-02-06T11:35:09.578Z,9.40
2018-02-06T11:37:37.899Z,10.60
2018-02-06T11:40:06.227Z,8.33
2018-02-06T11:42:34.630Z,8.50
2018-02-06T11:45:03.278Z,14.30
2018-02-06T11:47:31.625Z,7.43
2018-02-06T11:49:59.911Z,9.90
2018-02-06T11:52:28.296Z,12.70
2018-02-06T11:54:56.712Z,7.10
2018-02-06T11:57:25.079Z,8.53
2018-02-06T11:59:53.356Z,11.67
2018-02-06T12:02:21.687Z,9.77
2018-02-06T12:04:49.966Z,12.30
2018-02-06T12:07:18.314Z,14.80
2018-02-06T12:09:46.714Z,17.77
2018-02-06T12:12:15.197Z,9.13
2018-02-06T12:14:43.525Z,10.23
2018-02-06T12:17:12.324Z,13.33
2018-02-06T12:19:40.767Z,14.77
2018-02-06T12:22:09.135Z,9.70
2018-02-06T12:24:37.610Z,10.53
2018-02-06T12:27:06.168Z,10.93
2018-02-06T12:29:34.718Z,8.17
2018-02-06T12:32:03.166Z,9.57
2018-02-06T12:34:31.478Z,8.20
2018-02-06T12:36:59.774Z,7.00
2018-02-06T12:39:28.439Z,9.20
2018-02-06T12:41:56.845Z,9.70
2018-02-06T12:44:25.208Z,7.13
2018-02-06T12:46:53.577Z,8.00
2018-02-06T12:49:21.871Z,9.83
2018-02-06T12:51:50.243Z,6.90
2018-02-06T12:54:18.545Z,6.57
2018-02-06T12:56:46.913Z,9.27
2018-02-06T12:59:15.266Z,7.30
2018-02-06T13:01:43.639Z,7.20
2018-02-06T13:04:11.891Z,9.40
2018-02-06T13:06:40.207Z,8.00
2018-02-06T13:09:08.484Z,11.60
2018-02-06T13:11:43.304Z,7.90
2018-02-06T13:14:11.681Z,9.90
2018-02-06T13:16:40.035Z,9.53
2018-02-06T13:19:08.330Z,11.50
2018-02-06T13:21:36.655Z,11.60
2018-02-06T13:24:05.011Z,9.93
2018-02-06T13:26:33.355Z,12.60
2018-02-06T13:29:02.000Z,6.90
2018-02-06T13:31:32.010Z,9.37
2018-02-06T13:34:00.701Z,13.00
2018-02-06T13:36:29.017Z,7.53
2018-02-06T13:38:57.588Z,6.83
2018-02-06T13:41:26.198Z,6.70
2018-02-06T13:43:54.682Z,7.67
2018-02-06T13:46:23.158Z,6.57
2018-02-06T13:48:51.474Z,35.87
2018-02-06T13:51:19.798Z,8.23
2018-02-06T13:53:48.096Z,6.73
2018-02-06T13:56:16.503Z,5.90
2018-02-06T13:58:44.795Z,8.30
2018-02-06T14:01:13.213Z,10.80
2018-02-06T14:03:41.535Z,9.00
2018-02-06T14:06:09.983Z,7.53
2018-02-06T14:08:38.355Z,7.57
2018-02-06T14:11:06.697Z,8.30
2018-02-06T14:16:09.530Z,11.83
2018-02-06T14:18:37.815Z,7.53
2018-02-06T14:21:06.186Z,8.97
2018-02-06T14:23:34.507Z,28.13
2018-02-06T14:26:03.430Z,5.43
2018-02-06T14:28:31.749Z,6.00
2018-02-06T14:31:00.963Z,5.37
2018-02-06T14:33:30.250Z,8.20
2018-02-06T14:35:58.617Z,6.97
2018-02-06T14:38:27.498Z,7.10
2018-02-06T14:40:56.857Z,7.17
2018-02-06T14:43:25.374Z,5.40
2018-02-06T14:45:53.792Z,13.63
2018-02-06T14:48:22.123Z,5.20
2018-02-06T14:50:50.492Z,7.47
2018-02-06T14:53:18.795Z,10.57
2018-02-06T14:55:47.204Z,8.37
2018-02-06T14:58:15.547Z,10.20
2018-02-06T15:00:43.860Z,7.80
2018-02-06T15:03:13.439Z,8.23
2018-02-06T15:05:41.909Z,6.97
2018-02-06T15:08:10.272Z,9.10
2018-02-06T15:10:38.678Z,8.67
2018-02-06T15:13:06.988Z,9.27
2018-02-06T15:15:35.332Z,12.27
2018-02-06T15:18:03.869Z,11.13
2018-02-06T15:20:32.166Z,11.70
2018-02-06T15:23:00.524Z,7.47
2018-02-06T15:25:28.952Z,11.60
2018-02-06T15:27:57.683Z,7.83
2018-02-06T15:30:26.018Z,8.60
2018-02-06T15:32:54.344Z,13.60
2018-02-06T15:35:22.666Z,6.93
2018-02-06T15:37:51.050Z,8.83
2018-02-06T15:40:19.394Z,8.70
2018-02-06T15:42:49.058Z,13.30
2018-02-06T15:45:17.421Z,8.93
2018-02-06T15:47:45.905Z,8.73
2018-02-06T15:50:14.268Z,11.10
2018-02-06T15:52:42.671Z,9.17
2018-02-06T15:55:10.980Z,6.43
2018-02-06T15:57:39.315Z,8.40
2018-02-06T16:00:07.894Z,7.57
2018-02-06T16:02:36.330Z,9.00
2018-02-06T16:05:04.639Z,9.00
2018-02-06T16:07:32.940Z,8.87
2018-02-06T16:10:01.227Z,8.97
2018-02-06T16:12:30.050Z,7.57
2018-02-06T16:14:58.403Z,7.37
2018-02-06T16:17:26.769Z,9.27
2018-02-06T16:19:55.066Z,9.70
2018-02-06T16:22:23.607Z,11.23
2018-02-06T16:24:51.892Z,15.07
2018-02-06T16:27:20.303Z,15.97
2018-02-06T16:29:48.634Z,12.00
2018-02-06T16:32:17.123Z,11.70
2018-02-06T16:34:45.485Z,13.87
2018-02-06T16:37:13.961Z,12.10
2018-02-06T16:39:43.230Z,11.90
2018-02-06T16:42:11.681Z,13.27
2018-02-06T16:44:40.162Z,10.93
2018-02-06T16:47:08.563Z,9.20
2018-02-06T16:49:37.001Z,14.73
2018-02-06T16:52:05.355Z,13.90
2018-02-06T16:54:33.715Z,14.97
2018-02-06T16:57:02.242Z,9.93
2018-02-06T16:59:30.781Z,15.00
2018-02-06T17:01:59.175Z,14.60
2018-02-06T17:04:27.479Z,21.70
2018-02-06T17:06:55.906Z,9.90
2018-02-06T17:09:24.206Z,19.00
2018-02-06T17:11:52.608Z,16.30
2018-02-06T17:14:21.075Z,16.13
2018-02-06T17:16:49.460Z,12.30
2018-02-06T17:19:17.801Z,16.00
2018-02-06T17:21:46.181Z,13.03
2018-02-06T17:24:14.502Z,20.60
2018-02-06T17:26:49.801Z,13.10
2018-02-06T17:29:18.144Z,16.73
2018-02-06T17:31:46.469Z,14.27
2018-02-06T17:34:14.916Z,17.13
2018-02-06T17:36:43.284Z,12.30
2018-02-06T17:39:11.586Z,14.33
2018-02-06T17:41:39.996Z,17.40
2018-02-06T17:44:08.326Z,15.73
2018-02-06T17:46:36.854Z,22.23
2018-02-06T17:49:05.115Z,16.00
2018-02-06T17:51:33.492Z,18.03
2018-02-06T17:54:01.778Z,16.50
2018-02-06T17:56:30.103Z,18.97
2018-02-06T17:58:58.539Z,16.30
2018-02-06T18:01:26.859Z,17.80
2018-02-06T18:03:55.202Z,16.97
2018-02-06T18:06:23.568Z,19.47
2018-02-06T18:08:51.905Z,20.80
2018-02-06T18:11:20.294Z,17.97
2018-02-06T18:13:49.222Z,21.80
2018-02-06T18:16:18.747Z,19.23
2018-02-06T18:18:47.032Z,22.27
2018-02-06T18:21:15.352Z,19.57
2018-02-06T18:23:43.798Z,20.07
2018-02-06T18:26:12.240Z,24.00
2018-02-06T18:28:40.563Z,22.67
2018-02-06T18:31:10.760Z,18.90
2018-02-06T18:33:39.212Z,22.40
2018-02-06T18:36:07.635Z,20.97
2018-02-06T18:38:36.080Z,25.93
2018-02-06T18:41:04.613Z,22.90
2018-02-06T18:43:33.034Z,25.77
2018-02-06T18:46:01.391Z,25.30
2018-02-06T18:48:30.055Z,26.80
2018-02-06T18:50:58.503Z,20.97
2018-02-06T18:53:26.882Z,23.53
2018-02-06T18:55:55.946Z,30.40
2018-02-06T18:58:24.603Z,19.70
2018-02-06T19:00:53.241Z,19.67
2018-02-06T19:03:23.730Z,16.60
2018-02-06T19:05:57.580Z,20.80
2018-02-06T19:08:26.915Z,18.10
2018-02-06T19:10:55.243Z,25.27
2018-02-06T19:13:26.060Z,22.80
2018-02-06T19:15:54.456Z,18.93
2018-02-06T19:18:23.723Z,21.77
2018-02-06T19:20:52.289Z,19.80
2018-02-06T19:23:21.158Z,20.17
2018-02-06T19:25:49.622Z,21.10
2018-02-06T19:28:18.562Z,17.67
2018-02-06T19:30:47.182Z,17.80
2018-02-06T19:33:15.547Z,20.90
2018-02-06T19:35:43.873Z,17.17
2018-02-06T19:38:15.944Z,18.07
2018-02-06T19:40:44.392Z,19.73
2018-02-06T19:43:12.730Z,16.50
2018-02-06T19:45:41.162Z,16.70
2018-02-06T19:48:09.469Z,19.67
2018-02-06T19:50:38.014Z,17.00
2018-02-06T19:53:06.307Z,21.80
2018-02-06T19:55:34.673Z,19.90
2018-02-06T19:58:03.007Z,17.00
2018-02-06T20:00:31.482Z,22.53
2018-02-06T20:02:59.906Z,17.10
2018-02-06T20:05:28.360Z,20.27
2018-02-06T20:07:56.703Z,18.13
2018-02-06T20:10:25.106Z,20.60
2018-02-06T20:12:53.454Z,19.90
2018-02-06T20:15:22.194Z,20.60
2018-02-06T20:17:50.646Z,23.30
2018-02-06T20:20:19.083Z,25.60
2018-02-06T20:22:47.539Z,23.23
2018-02-06T20:25:16.199Z,21.17
2018-02-06T20:27:44.609Z,22.50
2018-02-06T20:30:13.031Z,15.90
2018-02-06T20:32:41.374Z,21.83
2018-02-06T20:35:12.401Z,27.70
2018-02-06T20:37:41.055Z,22.20
2018-02-06T20:40:09.388Z,24.27
2018-02-06T20:42:37.826Z,17.07
2018-02-06T20:45:06.154Z,17.00
2018-02-06T20:47:34.791Z,18.63
2018-02-06T20:50:03.292Z,22.13
2018-02-06T20:52:31.647Z,18.33
2018-02-06T20:54:59.998Z,17.30
2018-02-06T20:57:32.175Z,20.30
2018-02-06T21:00:00.620Z,23.03
2018-02-06T21:02:28.954Z,26.60
2018-02-06T21:04:57.279Z,23.17
2018-02-06T21:07:25.611Z,23.33
2018-02-06T21:09:53.935Z,22.90
2018-02-06T21:12:22.498Z,22.40
2018-02-06T21:14:50.852Z,20.40
2018-02-06T21:17:19.217Z,22.90
2018-02-06T21:19:47.503Z,18.90
2018-02-06T21:22:15.847Z,21.33
2018-02-06T21:24:45.970Z,23.67
2018-02-06T21:28:14.829Z,22.57
2018-02-06T21:30:46.127Z,23.17
2018-02-06T21:33:14.548Z,23.27
2018-02-06T21:35:42.910Z,25.93
2018-02-06T21:38:11.335Z,21.47
2018-02-06T21:40:39.940Z,23.90
2018-02-06T21:43:08.644Z,25.57
2018-02-06T21:45:37.300Z,27.00
2018-02-06T21:48:06.308Z,22.30
2018-02-06T21:50:34.682Z,25.40
2018-02-06T21:53:03.027Z,28.63
2018-02-06T21:55:33.427Z,22.60
2018-02-06T21:58:01.978Z,25.20
2018-02-06T22:00:30.593Z,21.13
2018-02-06T22:02:58.906Z,24.60
2018-02-06T22:05:27.312Z,20.93
2018-02-06T22:07:55.870Z,30.10
2018-02-06T22:10:24.330Z,23.07
2018-02-06T22:12:52.785Z,26.10
2018-02-06T22:15:23.136Z,23.80
2018-02-06T22:17:54.343Z,27.73
2018-02-06T22:20:27.131Z,38.33
2018-02-06T22:22:57.550Z,19.90
2018-02-06T22:25:29.854Z,27.70
2018-02-06T22:27:59.034Z,22.53
2018-02-06T22:30:29.783Z,25.80
2018-02-06T22:32:58.815Z,22.97
2018-02-06T22:35:30.137Z,20.57
2018-02-06T22:38:00.645Z,25.83
2018-02-06T22:40:30.969Z,23.10
2018-02-06T22:43:00.496Z,26.33
2018-02-06T22:45:29.113Z,26.50
2018-02-06T22:47:57.637Z,25.20
2018-02-06T22:50:25.971Z,23.47
2018-02-06T22:52:54.679Z,25.87
2018-02-06T22:55:23.012Z,23.37
2018-02-06T22:57:51.647Z,23.93
2018-02-06T23:00:23.612Z,32.43
2018-02-06T23:02:51.991Z,22.60
2018-02-06T23:05:21.124Z,28.83
2018-02-06T23:07:49.752Z,24.97
2018-02-06T23:10:18.115Z,29.30
2018-02-06T23:12:46.805Z,31.23
2018-02-06T23:15:15.369Z,29.70
2018-02-06T23:17:43.833Z,25.30
2018-02-06T23:20:12.166Z,29.60
2018-02-06T23:22:40.463Z,26.30
2018-02-06T23:25:08.842Z,30.03
2018-02-06T23:27:37.206Z,23.67
2018-02-06T23:30:05.540Z,30.17
2018-02-06T23:32:34.027Z,30.00
2018-02-06T23:35:02.311Z,35.70
2018-02-06T23:37:30.684Z,29.07
2018-02-06T23:39:58.994Z,27.33
2018-02-06T23:42:27.698Z,33.30
2018-02-06T23:44:56.011Z,29.97
2018-02-06T23:47:24.388Z,32.33
2018-02-06T23:49:52.814Z,30.57
2018-02-06T23:52:21.514Z,32.33
2018-02-06T23:54:50.338Z,27.20
2018-02-06T23:57:19.326Z,26.87
2018-02-06T23:59:48.276Z,29.37
